Weather at Vranje Airfield [CLOSED]

Public forecast

Using degrees Celsius for public forecast. Weather courtesy of forecast.io.

Closest aviation weather report (METAR) to Vranje Airfield

Closest report is Priština Adem Jashari International Airport, 36.8 nm (68.1 km) W.

2024/05/27 23:00 (retrieved 27 minutes ago)

BKPR 272300Z VRB01KT CAVOK 11/08 Q1018 NOSIG

Closest aviation forecast (TAF) to Vranje Airfield

Closest forecast is Priština Adem Jashari International Airport, 36.8 nm (68.1 km) W.

2024/05/27 18:00 (retrieved 5 hours ago)

TAF BKPR 271730Z 2718/2818 35009KT 9999 FEW050 PROB30 TEMPO 2812/2818 5000 -TSRA SCT030CB